createdAt,value
2018-11-28T00:00:23.487Z,17.67
2018-11-28T00:02:52.151Z,18.50
2018-11-28T00:05:20.805Z,18.10
2018-11-28T00:07:49.363Z,17.23
2018-11-28T00:10:18.071Z,18.23
2018-11-28T00:12:46.702Z,18.77
2018-11-28T00:15:16.029Z,18.23
2018-11-28T00:17:44.636Z,16.77
2018-11-28T00:20:16.303Z,17.77
2018-11-28T00:22:45.101Z,17.83
2018-11-28T00:25:14.614Z,17.20
2018-11-28T00:27:43.466Z,16.63
2018-11-28T00:30:13.146Z,17.53
2018-11-28T00:32:42.051Z,17.90
2018-11-28T00:35:13.808Z,17.67
2018-11-28T00:37:42.357Z,15.63
2018-11-28T00:40:12.148Z,17.40
2018-11-28T00:42:41.089Z,16.63
2018-11-28T00:45:11.783Z,16.97
2018-11-28T00:47:40.400Z,18.37
2018-11-28T00:50:11.247Z,16.00
2018-11-28T00:52:39.826Z,16.17
2018-11-28T00:55:11.016Z,15.60
2018-11-28T00:57:39.598Z,17.67
2018-11-28T01:00:10.745Z,16.93
2018-11-28T01:02:39.446Z,16.33
2018-11-28T01:05:09.346Z,17.17
2018-11-28T01:07:38.001Z,17.37
2018-11-28T01:10:10.950Z,18.53
2018-11-28T01:12:39.535Z,17.63
2018-11-28T01:15:09.272Z,17.30
2018-11-28T01:17:37.802Z,16.20
2018-11-28T01:20:08.586Z,17.00
2018-11-28T01:22:37.168Z,17.37
2018-11-28T01:25:07.584Z,16.47
2018-11-28T01:27:36.116Z,17.63
2018-11-28T01:30:07.617Z,17.07
2018-11-28T01:32:36.183Z,17.10
2018-11-28T01:35:05.526Z,16.73
2018-11-28T01:37:34.048Z,17.25
2018-11-28T01:40:02.564Z,17.67
2018-11-28T01:42:31.100Z,17.42
2018-11-28T01:44:59.763Z,18.37
2018-11-28T01:47:28.242Z,18.00
2018-11-28T01:49:56.799Z,18.03
2018-11-28T01:52:25.291Z,18.40
2018-11-28T01:54:53.855Z,19.42
2018-11-28T01:57:22.403Z,18.90
2018-11-28T01:59:50.930Z,18.27
2018-11-28T02:02:19.434Z,18.57
2018-11-28T02:04:48.044Z,18.07
2018-11-28T02:07:16.558Z,17.90
2018-11-28T02:09:45.070Z,18.93
2018-11-28T02:12:13.642Z,19.90
2018-11-28T02:14:42.250Z,17.17
2018-11-28T02:17:10.762Z,17.53
2018-11-28T02:19:39.250Z,16.53
2018-11-28T02:22:07.850Z,17.27
2018-11-28T02:24:36.403Z,17.83
2018-11-28T02:27:05.094Z,18.70
2018-11-28T02:29:33.672Z,18.27
2018-11-28T02:32:02.233Z,17.10
2018-11-28T02:34:30.794Z,17.27
2018-11-28T02:36:59.418Z,16.97
2018-11-28T02:39:27.982Z,17.40
2018-11-28T02:41:56.679Z,18.00
2018-11-28T02:44:25.184Z,17.20
2018-11-28T02:46:53.700Z,17.13
2018-11-28T02:49:22.317Z,17.43
2018-11-28T02:51:51.022Z,17.97
2018-11-28T02:54:19.634Z,19.17
2018-11-28T02:56:48.555Z,17.43
2018-11-28T02:59:17.301Z,16.70
2018-11-28T03:01:45.821Z,18.70
2018-11-28T03:04:14.717Z,18.17
2018-11-28T03:06:43.239Z,18.67
2018-11-28T03:09:11.740Z,18.87
2018-11-28T03:11:40.627Z,19.57
2018-11-28T03:14:09.234Z,19.03
2018-11-28T03:16:37.973Z,18.62
2018-11-28T03:19:06.617Z,19.73
2018-11-28T03:21:35.211Z,19.52
2018-11-28T03:24:03.876Z,19.37
2018-11-28T03:26:32.484Z,18.73
2018-11-28T03:29:01.091Z,18.70
2018-11-28T03:31:29.712Z,19.93
2018-11-28T03:33:58.291Z,19.93
2018-11-28T03:36:26.798Z,17.97
2018-11-28T03:38:55.406Z,19.20
2018-11-28T03:41:23.950Z,20.52
2018-11-28T03:43:52.447Z,19.32
2018-11-28T03:46:21.071Z,20.72
2018-11-28T03:48:49.627Z,20.30
2018-11-28T03:51:18.191Z,19.60
2018-11-28T03:53:46.712Z,19.27
2018-11-28T03:56:15.192Z,19.60
2018-11-28T03:58:43.752Z,17.97
2018-11-28T04:01:12.179Z,18.40
2018-11-28T04:03:40.748Z,18.47
2018-11-28T04:06:09.382Z,19.60
2018-11-28T04:08:37.969Z,18.03
2018-11-28T04:11:06.531Z,19.37
2018-11-28T04:13:35.071Z,18.60
2018-11-28T04:16:03.637Z,20.37
2018-11-28T04:18:32.284Z,18.25
2018-11-28T04:21:00.796Z,19.50
2018-11-28T04:23:29.337Z,20.10
2018-11-28T04:25:57.850Z,20.97
2018-11-28T04:28:26.495Z,19.50
2018-11-28T04:30:55.023Z,18.62
2018-11-28T04:33:23.554Z,19.77
2018-11-28T04:35:52.134Z,20.13
2018-11-28T04:38:20.851Z,19.60
2018-11-28T04:40:49.400Z,19.35
2018-11-28T04:43:17.964Z,20.82
2018-11-28T04:45:46.735Z,19.98
2018-11-28T04:48:15.235Z,20.10
2018-11-28T04:50:44.833Z,20.27
2018-11-28T04:53:13.453Z,20.57
2018-11-28T04:55:41.944Z,20.90
2018-11-28T04:58:10.499Z,20.52
2018-11-28T05:00:39.041Z,20.52
2018-11-28T05:03:07.616Z,20.30
2018-11-28T05:05:36.087Z,19.98
2018-11-28T05:08:04.809Z,20.45
2018-11-28T05:10:33.523Z,20.25
2018-11-28T05:13:02.183Z,19.35
2018-11-28T05:15:32.612Z,20.12
2018-11-28T05:18:01.155Z,20.15
2018-11-28T05:20:31.976Z,20.65
2018-11-28T05:23:00.589Z,19.85
2018-11-28T05:25:29.283Z,20.50
2018-11-28T05:27:58.702Z,20.82
2018-11-28T05:30:28.280Z,19.92
2018-11-28T06:15:38.980Z,19.10
2018-11-28T06:18:08.438Z,21.00
2018-11-28T06:20:37.102Z,20.85
2018-11-28T06:29:11.225Z,21.50
2018-11-28T06:31:39.649Z,21.02
2018-11-28T06:34:08.924Z,20.08
2018-11-28T06:39:52.063Z,20.55
2018-11-28T06:42:20.443Z,20.60
2018-11-28T06:44:48.857Z,20.57
2018-11-28T06:47:17.320Z,21.25
2018-11-28T06:49:45.735Z,21.27
2018-11-28T06:52:14.139Z,20.72
2018-11-28T06:54:42.664Z,21.23
2018-11-28T06:57:11.181Z,20.05
2018-11-28T06:59:39.647Z,22.65
2018-11-28T07:02:08.107Z,21.05
2018-11-28T07:04:36.569Z,21.37
2018-11-28T07:07:05.025Z,21.93
2018-11-28T07:09:33.476Z,20.40
2018-11-28T07:12:01.927Z,21.40
2018-11-28T07:14:30.427Z,20.00
2018-11-28T07:16:58.949Z,21.12
2018-11-28T07:19:27.541Z,20.45
2018-11-28T07:21:56.037Z,20.80
2018-11-28T07:24:24.443Z,21.42
2018-11-28T07:26:52.893Z,20.88
2018-11-28T07:29:21.349Z,21.73
2018-11-28T07:31:49.763Z,21.97
2018-11-28T07:34:18.277Z,20.00
2018-11-28T07:36:46.714Z,21.07
2018-11-28T07:39:15.231Z,20.88
2018-11-28T07:41:43.680Z,20.10
2018-11-28T07:44:12.197Z,21.37
2018-11-28T07:46:40.734Z,20.02
2018-11-28T07:49:09.207Z,20.72
2018-11-28T07:51:37.751Z,21.57
2018-11-28T07:54:06.375Z,21.80
2018-11-28T07:56:34.850Z,20.43
2018-11-28T07:59:03.439Z,21.50
2018-11-28T08:01:31.995Z,20.65
2018-11-28T08:04:00.621Z,21.90
2018-11-28T08:06:29.185Z,20.70
2018-11-28T08:08:58.695Z,22.22
2018-11-28T08:11:27.186Z,22.40
2018-11-28T08:13:55.629Z,19.70
2018-11-28T08:16:24.102Z,22.42
2018-11-28T08:18:52.573Z,21.60
2018-11-28T08:21:21.119Z,21.60
2018-11-28T08:23:49.531Z,21.53
2018-11-28T08:26:18.013Z,21.30
2018-11-28T08:28:46.443Z,21.17
2018-11-28T08:31:14.908Z,21.90
2018-11-28T08:33:43.346Z,21.77
2018-11-28T08:36:11.828Z,21.82
2018-11-28T08:38:40.323Z,21.70
2018-11-28T08:41:08.829Z,21.50
2018-11-28T08:43:37.007Z,19.50
2018-11-28T08:46:05.870Z,21.93
2018-11-28T08:48:34.071Z,21.43
2018-11-28T08:51:02.263Z,21.40
2018-11-28T08:53:30.359Z,20.77
2018-11-28T08:55:58.559Z,21.97
2018-11-28T08:58:26.819Z,23.03
2018-11-28T09:00:55.000Z,20.40
2018-11-28T09:03:23.176Z,22.33
2018-11-28T09:05:51.487Z,23.20
2018-11-28T09:08:20.435Z,21.53
2018-11-28T09:10:48.636Z,21.87
2018-11-28T09:13:16.873Z,23.10
2018-11-28T09:15:45.050Z,22.48
2018-11-28T09:18:13.278Z,21.23
2018-11-28T09:20:41.475Z,22.70
2018-11-28T09:23:09.660Z,22.87
2018-11-28T09:25:37.981Z,23.43
2018-11-28T09:28:06.260Z,23.03
2018-11-28T09:30:34.649Z,22.63
2018-11-28T09:33:02.860Z,23.47
2018-11-28T09:35:31.224Z,23.30
2018-11-28T09:37:59.348Z,23.87
2018-11-28T09:40:27.465Z,21.93
2018-11-28T09:42:56.236Z,22.73
2018-11-28T09:45:24.374Z,23.30
2018-11-28T09:47:52.506Z,22.10
2018-11-28T09:50:21.077Z,21.80
2018-11-28T09:52:49.301Z,20.57
2018-11-28T09:55:18.999Z,21.30
2018-11-28T09:57:47.200Z,20.57
2018-11-28T10:00:18.488Z,19.20
2018-11-28T10:02:46.814Z,20.93
2018-11-28T10:05:15.588Z,20.67
2018-11-28T10:07:43.838Z,20.53
2018-11-28T10:10:12.365Z,20.30
2018-11-28T10:12:40.516Z,19.77
2018-11-28T10:15:10.624Z,22.03
2018-11-28T10:17:38.756Z,21.83
2018-11-28T10:20:07.493Z,21.27
2018-11-28T10:22:35.665Z,21.40
2018-11-28T10:25:03.791Z,20.13
2018-11-28T10:27:31.983Z,21.07
2018-11-28T10:30:00.079Z,19.83
2018-11-28T10:32:28.290Z,19.93
2018-11-28T10:34:56.534Z,20.87
2018-11-28T10:37:24.703Z,20.50
2018-11-28T10:39:52.868Z,19.40
2018-11-28T10:42:20.979Z,19.77
2018-11-28T10:44:49.128Z,19.27
2018-11-28T10:47:17.347Z,18.10
2018-11-28T10:49:45.508Z,18.67
2018-11-28T10:52:13.679Z,18.03
2018-11-28T10:54:41.961Z,19.17
2018-11-28T10:57:10.420Z,18.43
2018-11-28T10:59:38.433Z,18.93
2018-11-28T11:02:11.920Z,19.77
2018-11-28T11:04:45.552Z,19.13
2018-11-28T11:07:19.131Z,19.80
2018-11-28T11:09:52.631Z,20.10
2018-11-28T11:12:26.098Z,19.43
2018-11-28T11:14:54.289Z,20.23
2018-11-28T11:17:22.517Z,18.23
2018-11-28T11:19:50.652Z,19.70
2018-11-28T11:22:18.794Z,19.17
2018-11-28T11:24:46.913Z,19.63
2018-11-28T11:27:15.061Z,19.77
2018-11-28T11:29:43.229Z,20.77
2018-11-28T11:32:11.373Z,20.17
2018-11-28T11:34:39.617Z,19.67
2018-11-28T11:37:07.745Z,19.83
2018-11-28T11:39:35.952Z,20.13
2018-11-28T11:42:04.073Z,20.30
2018-11-28T11:44:32.303Z,19.60
2018-11-28T11:47:00.527Z,18.83
2018-11-28T11:49:28.732Z,19.27
2018-11-28T11:51:56.867Z,17.97
2018-11-28T11:54:24.949Z,18.30
2018-11-28T11:56:53.099Z,18.03
2018-11-28T11:59:21.359Z,18.33
2018-11-28T12:01:54.576Z,18.00
2018-11-28T12:04:17.724Z,18.97
2018-11-28T12:06:45.989Z,19.43
2018-11-28T12:09:14.145Z,18.33
2018-11-28T12:11:42.366Z,17.83
2018-11-28T12:14:10.522Z,18.00
2018-11-28T12:16:38.761Z,17.53
2018-11-28T12:19:06.949Z,19.03
2018-11-28T12:21:35.265Z,17.77
2018-11-28T12:24:03.434Z,18.87
2018-11-28T12:26:31.585Z,19.13
2018-11-28T12:28:59.734Z,18.73
2018-11-28T12:31:27.958Z,18.47
2018-11-28T12:33:56.185Z,18.50
2018-11-28T12:36:24.306Z,18.13
2018-11-28T12:38:52.474Z,18.00
2018-11-28T12:41:20.672Z,18.53
2018-11-28T12:43:48.865Z,17.83
2018-11-28T12:46:16.980Z,18.03
2018-11-28T12:48:45.144Z,17.57
2018-11-28T12:51:13.461Z,17.00
2018-11-28T12:53:41.592Z,16.80
2018-11-28T12:56:09.765Z,18.07
2018-11-28T12:58:38.001Z,19.47
2018-11-28T13:01:06.164Z,18.87
2018-11-28T13:03:34.340Z,18.77
2018-11-28T13:06:02.561Z,18.33
2018-11-28T13:08:30.844Z,18.57
2018-11-28T13:10:59.202Z,20.10
2018-11-28T13:13:27.405Z,18.17
2018-11-28T13:15:55.628Z,18.73
2018-11-28T13:18:23.840Z,19.50
2018-11-28T13:20:52.051Z,18.23
2018-11-28T13:23:20.246Z,17.97
2018-11-28T13:25:48.467Z,17.80
2018-11-28T13:28:16.788Z,20.07
2018-11-28T13:30:44.975Z,20.07
2018-11-28T13:33:14.066Z,20.17
2018-11-28T13:35:42.293Z,20.17
2018-11-28T13:38:13.775Z,19.13
2018-11-28T13:40:42.466Z,19.97
2018-11-28T13:43:10.930Z,20.10
2018-11-28T13:45:40.093Z,20.10
2018-11-28T13:48:12.224Z,19.53
2018-11-28T13:50:41.550Z,19.93
2018-11-28T13:53:10.726Z,19.80
2018-11-28T13:55:42.304Z,21.67
2018-11-28T13:58:09.696Z,19.17
2018-11-28T14:00:37.912Z,20.20
2018-11-28T14:03:06.050Z,20.23
2018-11-28T14:05:34.162Z,21.50
2018-11-28T14:08:02.334Z,20.27
2018-11-28T14:10:30.506Z,19.45
2018-11-28T14:12:58.674Z,21.00
2018-11-28T14:15:26.885Z,20.90
2018-11-28T14:17:56.686Z,21.35
2018-11-28T14:20:24.871Z,20.50
2018-11-28T14:22:53.070Z,21.15
2018-11-28T14:25:21.284Z,20.75
2018-11-28T14:27:49.431Z,22.27
2018-11-28T14:30:18.082Z,21.52
2018-11-28T14:32:46.342Z,22.25
2018-11-28T14:35:14.658Z,19.97
2018-11-28T14:37:42.811Z,22.62
2018-11-28T14:40:14.543Z,21.87
2018-11-28T14:42:43.399Z,21.23
2018-11-28T14:45:13.256Z,22.05
2018-11-28T14:47:41.559Z,21.05
2018-11-28T14:50:10.478Z,20.88
2018-11-28T14:52:38.639Z,20.48
2018-11-28T14:55:10.312Z,21.33
2018-11-28T14:57:38.464Z,21.05
2018-11-28T15:00:10.405Z,21.27
2018-11-28T15:02:38.716Z,21.62
2018-11-28T15:05:09.841Z,21.17
2018-11-28T15:07:38.023Z,21.10
2018-11-28T15:10:06.180Z,21.50
2018-11-28T15:12:34.503Z,20.85
2018-11-28T15:15:02.669Z,19.32
2018-11-28T15:17:30.920Z,20.50
2018-11-28T15:19:59.178Z,19.45
2018-11-28T15:22:27.316Z,21.00
2018-11-28T15:24:55.489Z,21.10
2018-11-28T15:27:23.833Z,22.22
2018-11-28T15:29:52.077Z,20.95
2018-11-28T15:32:20.379Z,21.80
2018-11-28T15:34:48.593Z,20.82
2018-11-28T15:37:16.827Z,19.25
2018-11-28T15:39:44.999Z,21.42
2018-11-28T15:42:13.225Z,19.95
2018-11-28T15:44:41.531Z,20.97
2018-11-28T15:47:09.755Z,20.05
2018-11-28T15:49:37.944Z,19.77
2018-11-28T15:52:06.213Z,20.52
2018-11-28T15:54:34.387Z,21.20
2018-11-28T15:57:02.627Z,21.42
2018-11-28T15:59:30.999Z,20.23
2018-11-28T16:01:59.216Z,20.43
2018-11-28T16:04:27.471Z,20.95
2018-11-28T16:06:55.616Z,21.75
2018-11-28T16:09:29.151Z,21.05
2018-11-28T16:11:58.051Z,20.75
2018-11-28T16:14:26.385Z,20.90
2018-11-28T16:16:54.790Z,22.50
2018-11-28T16:19:23.050Z,22.17
2018-11-28T16:21:51.256Z,21.82
2018-11-28T16:24:19.450Z,21.97
2018-11-28T16:26:47.622Z,23.30
2018-11-28T16:29:15.746Z,21.82
2018-11-28T16:31:43.976Z,22.32
2018-11-28T16:34:12.156Z,22.80
2018-11-28T16:36:40.318Z,22.62
2018-11-28T16:39:08.509Z,22.10
2018-11-28T16:41:36.840Z,23.20
2018-11-28T16:44:05.107Z,22.48
2018-11-28T16:46:33.363Z,22.52
2018-11-28T16:49:01.519Z,22.45
2018-11-28T16:51:29.716Z,23.45
2018-11-28T16:53:57.918Z,23.90
2018-11-28T16:56:26.091Z,22.87
2018-11-28T16:58:54.284Z,23.60
2018-11-28T17:01:22.483Z,23.32
2018-11-28T17:03:51.080Z,24.67
2018-11-28T17:06:19.239Z,24.10
2018-11-28T17:08:47.718Z,24.67
2018-11-28T17:11:15.885Z,23.62
2018-11-28T17:13:44.023Z,23.92
2018-11-28T17:16:12.811Z,24.70
2018-11-28T17:18:41.010Z,23.75
2018-11-28T17:21:09.253Z,22.22
2018-11-28T17:23:37.386Z,22.42
2018-11-28T17:26:05.887Z,23.40
2018-11-28T17:28:34.082Z,23.90
2018-11-28T17:31:02.265Z,22.82
2018-11-28T17:33:30.500Z,24.12
2018-11-28T17:35:58.743Z,23.50
2018-11-28T17:38:27.979Z,23.47
2018-11-28T17:40:56.157Z,23.70
2018-11-28T17:43:24.566Z,24.32
2018-11-28T17:45:52.808Z,22.95
2018-11-28T17:48:21.145Z,24.82
2018-11-28T17:50:49.816Z,24.82
2018-11-28T17:53:17.955Z,22.95
2018-11-28T17:55:48.699Z,24.43
2018-11-28T17:58:17.675Z,24.40
2018-11-28T18:00:45.843Z,24.60
2018-11-28T18:03:13.986Z,24.95
2018-11-28T18:05:42.206Z,25.48
2018-11-28T18:08:10.405Z,24.77
2018-11-28T18:10:38.555Z,23.55
2018-11-28T18:13:08.733Z,23.83
2018-11-28T18:15:36.941Z,24.75
2018-11-28T18:18:06.009Z,23.75
2018-11-28T18:20:34.190Z,23.77
2018-11-28T18:23:02.316Z,23.87
2018-11-28T18:25:30.876Z,24.32
2018-11-28T18:27:59.141Z,24.15
2018-11-28T18:30:27.523Z,24.10
2018-11-28T18:32:55.744Z,24.20
2018-11-28T18:35:23.881Z,22.87
2018-11-28T18:37:52.047Z,25.00
2018-11-28T18:40:20.237Z,25.70
2018-11-28T18:42:48.389Z,24.43
2018-11-28T18:45:18.358Z,23.42
2018-11-28T18:47:46.292Z,23.65
2018-11-28T18:50:14.506Z,25.45
2018-11-28T18:52:42.626Z,24.25
2018-11-28T18:55:16.373Z,24.37
2018-11-28T18:57:39.679Z,24.32
2018-11-28T19:00:12.478Z,23.62
2018-11-28T19:02:40.917Z,24.82
2018-11-28T19:05:09.100Z,24.07
2018-11-28T19:07:37.394Z,22.22
2018-11-28T19:10:08.436Z,21.85
2018-11-28T19:12:36.738Z,20.68
2018-11-28T19:15:06.063Z,21.52
2018-11-28T19:17:34.245Z,21.90
2018-11-28T19:20:02.534Z,21.48
2018-11-28T19:22:30.776Z,24.37
2018-11-28T19:24:59.086Z,22.82
2018-11-28T19:27:27.272Z,23.38
2018-11-28T19:29:55.477Z,23.07
2018-11-28T19:32:23.745Z,23.00
2018-11-28T19:34:51.940Z,20.95
2018-11-28T19:37:20.146Z,22.35
2018-11-28T19:39:48.427Z,20.85
2018-11-28T19:42:16.900Z,21.25
2018-11-28T19:44:45.122Z,21.85
2018-11-28T19:47:13.417Z,22.52
2018-11-28T19:49:41.751Z,20.27
2018-11-28T19:52:09.932Z,22.52
2018-11-28T19:54:38.161Z,21.90
2018-11-28T19:57:06.341Z,19.57
2018-11-28T19:59:34.771Z,20.43
2018-11-28T20:02:03.045Z,20.40
2018-11-28T20:04:31.354Z,20.40
2018-11-28T20:06:59.881Z,20.62
2018-11-28T20:09:28.053Z,21.95
2018-11-28T20:11:56.291Z,20.27
2018-11-28T20:14:24.515Z,21.55
2018-11-28T20:16:52.991Z,21.17
2018-11-28T20:19:21.295Z,20.57
2018-11-28T20:21:49.516Z,20.32
2018-11-28T20:24:17.740Z,21.68
2018-11-28T20:26:45.924Z,21.52
2018-11-28T20:29:14.090Z,21.42
2018-11-28T20:31:42.255Z,22.17
2018-11-28T20:34:10.391Z,22.70
2018-11-28T20:36:38.591Z,21.23
2018-11-28T20:39:08.096Z,22.35
2018-11-28T20:41:36.826Z,22.48
2018-11-28T20:44:05.965Z,22.02
2018-11-28T20:46:34.813Z,21.75
2018-11-28T20:49:03.031Z,23.07
2018-11-28T20:51:31.551Z,21.37
2018-11-28T20:53:59.990Z,20.90
2018-11-28T20:56:28.145Z,20.90
2018-11-28T20:58:57.099Z,22.40
2018-11-28T21:01:25.258Z,21.57
2018-11-28T21:03:53.501Z,21.70
2018-11-28T21:06:21.843Z,21.48
2018-11-28T21:08:50.022Z,21.97
2018-11-28T21:11:18.225Z,22.13
2018-11-28T21:13:46.600Z,22.20
2018-11-28T21:16:14.760Z,22.52
2018-11-28T21:18:43.007Z,22.93
2018-11-28T21:21:11.188Z,20.37
2018-11-28T21:23:39.365Z,21.27
2018-11-28T21:26:07.538Z,24.05
2018-11-28T21:28:35.717Z,21.48
2018-11-28T21:31:03.924Z,21.52
2018-11-28T21:33:32.141Z,22.00
2018-11-28T21:36:00.304Z,22.17
2018-11-28T21:38:28.465Z,23.15
2018-11-28T21:40:56.643Z,22.05
2018-11-28T21:43:24.934Z,21.30
2018-11-28T21:45:53.048Z,22.17
2018-11-28T21:48:21.181Z,23.62
2018-11-28T21:50:49.515Z,22.87
2018-11-28T21:53:17.682Z,24.15
2018-11-28T21:55:45.818Z,24.90
2018-11-28T21:58:13.987Z,23.62
2018-11-28T22:00:42.261Z,21.73
2018-11-28T22:03:10.455Z,23.62
2018-11-28T22:05:38.708Z,24.12
2018-11-28T22:08:06.940Z,23.05
2018-11-28T22:10:35.105Z,22.13
2018-11-28T22:13:03.217Z,24.10
2018-11-28T22:15:31.402Z,22.13
2018-11-28T22:17:59.514Z,23.60
2018-11-28T22:20:27.683Z,23.45
2018-11-28T22:22:55.854Z,23.22
2018-11-28T22:25:25.455Z,24.32
2018-11-28T22:27:53.688Z,21.17
2018-11-28T22:30:22.249Z,21.60
2018-11-28T22:32:50.387Z,21.85
2018-11-28T22:35:18.535Z,23.02
2018-11-28T22:37:46.692Z,22.30
2018-11-28T22:40:15.480Z,22.65
2018-11-28T22:42:43.599Z,22.42
2018-11-28T22:45:12.393Z,22.40
2018-11-28T22:47:40.496Z,21.73
2018-11-28T22:50:09.241Z,23.62
2018-11-28T22:52:37.601Z,23.25
2018-11-28T22:55:06.724Z,24.90
2018-11-28T22:57:34.959Z,24.35
2018-11-28T23:00:03.163Z,22.95
2018-11-28T23:02:36.764Z,23.20
2018-11-28T23:05:04.884Z,23.18
2018-11-28T23:07:32.983Z,21.77
2018-11-28T23:10:01.105Z,21.55
2018-11-28T23:12:29.299Z,22.42
2018-11-28T23:14:57.407Z,21.52
2018-11-28T23:17:25.545Z,24.32
2018-11-28T23:19:53.659Z,21.37
2018-11-28T23:22:21.825Z,21.73
2018-11-28T23:24:49.974Z,22.42
2018-11-28T23:27:18.085Z,22.62
2018-11-28T23:29:46.179Z,24.05
2018-11-28T23:32:14.293Z,23.18
2018-11-28T23:34:42.428Z,21.77
2018-11-28T23:37:10.872Z,20.57
2018-11-28T23:39:39.231Z,21.68
2018-11-28T23:42:07.479Z,22.10
2018-11-28T23:44:35.715Z,23.32
2018-11-28T23:47:03.930Z,23.83
2018-11-28T23:49:32.254Z,22.62
2018-11-28T23:52:00.486Z,23.85
2018-11-28T23:54:28.734Z,24.20
2018-11-28T23:56:56.898Z,23.50
2018-11-28T23:59:25.133Z,23.02
